LICA

Lamezia Terme Airport

Lamezia Terme, Italy
TAF LICA 191700Z 1918/2018 VRB05KT 9999 SCT030 BECMG 2010/2012 27010KT
Issued Valid From Valid To
Sep-19 @ 17:00 UTC
(6 hours ago)
Sep-19 @ 18:00 UTC
(5 hours ago)
Sep-20 @ 18:00 UTC
(in 19 hours)
Sep-19 @ 18:00 to Sep-20 @ 10:00
TAF LICA 191700Z 1918/2018 VRB05KT 9999 SCT030
Wind Visibility Clouds
Variable at 5 knots 10,000+ meters
  • Scattered at 3,000' AGL
Becoming Sep-20 @ 10:00 to Sep-20 @ 18:00
BECMG 2010/2012 27010KT
Wind Visibility Clouds
270° at 10 knots 10,000+ meters
  • Scattered at 3,000' AGL
TAF LICA 191700Z 1918/2018 VRB05KT 9999 SCT030 BECMG 2010/2012 27010KT
Issued Sep-19 @ 17:00 UTC
(6 hours ago)
Valid From Sep-19 @ 18:00 UTC
(5 hours ago)
Valid To Sep-20 @ 18:00 UTC
(in 19 hours)
Sep-19 @ 18:00 - Sep-20 @ 10:00
Wind Visibility
Variable at 5 knots 10,000+ meters
Clouds
  • Scattered at 3,000' AGL
Becoming Sep-20 @ 10:00 - Sep-20 @ 18:00
Wind Visibility
270° at 10 knots 10,000+ meters
Clouds
  • Scattered at 3,000' AGL